Time;durP1;ratioP1;P1;durP2;ratioP2;P2;SDS_P1;SDS_P2;PMS_P1;PMS_P2;Temp;Humidity;BMP_temperature;BMP_pressure;BME280_temperature;BME280_humidity;BME280_pressure;Samples;Min_cycle;Max_cycle;Signal;HPM_P1;HPM_P2
2024/01/11 00:01:31;;;;;;;54.00;35.27;;;-6.20;1.00;;;;;;5019571;28;20456;-64
2024/01/11 00:03:58;;;;;;;58.80;38.77;;;-6.20;1.00;;;;;;5019123;28;20496;-64
2024/01/11 00:06:27;;;;;;;51.10;33.93;;;-6.30;99.90;;;;;;5019001;28;20467;-63
2024/01/11 00:08:55;;;;;;;46.17;32.97;;;-6.40;99.90;;;;;;5019250;28;20906;-63
2024/01/11 00:11:22;;;;;;;52.63;34.70;;;-6.40;99.90;;;;;;5018420;28;20471;-63
2024/01/11 00:13:51;;;;;;;52.03;35.83;;;-6.40;99.90;;;;;;5019551;28;20456;-64
2024/01/11 00:16:19;;;;;;;47.80;33.80;;;-6.40;99.90;;;;;;5018544;28;20462;-64
2024/01/11 00:18:47;;;;;;;47.50;32.17;;;-6.40;99.90;;;;;;5019426;28;20435;-64
2024/01/11 00:21:18;;;;;;;51.43;32.77;;;-6.50;99.90;;;;;;5018789;28;20527;-63
2024/01/11 00:23:47;;;;;;;51.57;30.83;;;-6.50;99.90;;;;;;5019548;28;20566;-63
2024/01/11 00:26:15;;;;;;;43.40;29.70;;;-6.50;99.90;;;;;;5019311;28;20871;-63
2024/01/11 00:28:42;;;;;;;47.17;32.30;;;-6.50;99.90;;;;;;5018891;28;20874;-63
2024/01/11 00:31:10;;;;;;;50.10;31.70;;;-6.50;99.90;;;;;;5019078;28;20859;-64
2024/01/11 00:33:37;;;;;;;47.07;31.73;;;-6.50;99.90;;;;;;5019238;28;20472;-63
2024/01/11 00:36:05;;;;;;;52.00;31.87;;;-6.50;99.90;;;;;;5019334;28;20874;-63
2024/01/11 00:38:33;;;;;;;42.93;29.60;;;-6.60;99.90;;;;;;5018489;28;20465;-64
2024/01/11 00:41:01;;;;;;;51.33;29.50;;;-6.60;1.00;;;;;;5018969;28;20439;-64
2024/01/11 00:43:29;;;;;;;43.13;30.37;;;-6.60;1.00;;;;;;5019378;28;20941;-63
2024/01/11 00:45:56;;;;;;;46.27;30.17;;;-6.50;1.00;;;;;;5000482;28;20511;-64
2024/01/11 00:48:23;;;;;;;45.40;29.40;;;-6.50;1.00;;;;;;4998870;28;20504;-64
2024/01/11 00:50:51;;;;;;;47.50;30.60;;;-6.60;99.90;;;;;;4999121;28;20440;-64
2024/01/11 00:53:18;;;;;;;40.23;26.90;;;-6.60;99.90;;;;;;4999203;28;20886;-63
2024/01/11 00:55:45;;;;;;;43.13;28.03;;;-6.70;99.90;;;;;;4999106;28;20528;-63
2024/01/11 00:58:14;;;;;;;43.23;28.03;;;-6.80;99.90;;;;;;4998765;28;20506;-64
2024/01/11 01:00:41;;;;;;;38.50;26.97;;;-6.70;1.00;;;;;;4998668;28;20864;-63
2024/01/11 01:03:09;;;;;;;44.60;30.03;;;-6.80;1.00;;;;;;4998540;28;20464;-64
2024/01/11 01:05:36;;;;;;;38.30;28.30;;;-6.80;1.00;;;;;;4998359;28;20463;-63
2024/01/11 01:08:04;;;;;;;46.70;29.33;;;-6.80;1.00;;;;;;4999371;28;20462;-64
2024/01/11 01:10:31;;;;;;;43.93;28.10;;;-6.80;1.00;;;;;;4998717;28;20471;-64
2024/01/11 01:12:58;;;;;;;44.43;29.50;;;-6.80;1.00;;;;;;4998893;28;20557;-64
2024/01/11 01:15:27;;;;;;;40.87;27.00;;;-6.90;1.00;;;;;;4999162;28;20462;-63
2024/01/11 01:17:54;;;;;;;48.07;30.83;;;-6.90;1.00;;;;;;4998921;28;20500;-63
2024/01/11 01:20:22;;;;;;;45.97;29.43;;;-6.90;1.00;;;;;;4998462;28;20855;-64
2024/01/11 01:22:50;;;;;;;47.00;29.20;;;-6.90;1.00;;;;;;4998781;28;20571;-64
2024/01/11 01:25:17;;;;;;;45.40;28.93;;;-6.90;1.00;;;;;;4998584;28;20501;-64
2024/01/11 01:27:45;;;;;;;40.23;27.03;;;-7.00;1.00;;;;;;4998673;28;20457;-63
2024/01/11 01:30:12;;;;;;;45.10;29.03;;;-7.00;1.00;;;;;;4998334;28;20934;-63
2024/01/11 01:32:41;;;;;;;42.70;27.83;;;-7.00;1.00;;;;;;4998948;28;20905;-63
2024/01/11 01:35:09;;;;;;;45.63;28.60;;;-7.00;1.00;;;;;;4998478;28;20479;-63
2024/01/11 01:37:36;;;;;;;41.57;26.00;;;-7.00;1.00;;;;;;4998455;28;20584;-64
2024/01/11 01:40:05;;;;;;;42.73;27.97;;;-7.10;1.00;;;;;;4998573;28;20974;-63
2024/01/11 01:42:32;;;;;;;39.87;27.87;;;-7.10;1.00;;;;;;4998887;28;20926;-64
2024/01/11 01:44:59;;;;;;;46.03;27.83;;;-7.10;1.00;;;;;;4998967;28;20497;-63
2024/01/11 01:47:27;;;;;;;43.97;29.50;;;-7.10;1.00;;;;;;4998446;28;20836;-64
2024/01/11 01:49:57;;;;;;;52.63;30.90;;;-7.10;1.00;;;;;;4998550;28;20524;-63
2024/01/11 01:52:25;;;;;;;45.83;29.10;;;-7.10;1.00;;;;;;4998321;28;20751;-63
2024/01/11 01:54:53;;;;;;;44.73;29.50;;;-7.10;1.00;;;;;;4998386;28;20461;-64
2024/01/11 01:57:21;;;;;;;44.07;27.23;;;-7.20;1.00;;;;;;4998335;28;20520;-63
2024/01/11 01:59:52;;;;;;;41.37;26.80;;;-7.20;1.00;;;;;;4998675;28;20497;-60
2024/01/11 02:02:20;;;;;;;38.87;26.40;;;-7.20;1.00;;;;;;5000266;28;20733;-59
2024/01/11 02:04:47;;;;;;;41.50;26.20;;;-7.10;1.00;;;;;;5000447;28;20465;-60
2024/01/11 02:07:17;;;;;;;39.33;25.83;;;-7.10;1.00;;;;;;5000715;28;20512;-60
2024/01/11 02:09:45;;;;;;;41.83;26.07;;;-7.10;1.00;;;;;;5000037;28;20946;-60
2024/01/11 02:12:14;;;;;;;40.90;25.87;;;-7.20;1.00;;;;;;4999907;28;20436;-60
2024/01/11 02:14:42;;;;;;;46.83;25.93;;;-7.20;15.90;;;;;;5000199;28;20492;-59
2024/01/11 02:17:09;;;;;;;44.03;27.93;;;-7.30;1.00;;;;;;4999842;28;20493;-59
2024/01/11 02:19:36;;;;;;;41.60;26.87;;;-7.30;1.00;;;;;;5000362;28;20542;-59
2024/01/11 02:22:09;;;;;;;45.37;27.30;;;-7.20;1.00;;;;;;5000486;28;20462;-59
2024/01/11 02:24:38;;;;;;;39.20;27.00;;;-7.20;1.00;;;;;;5000327;28;20446;-59
2024/01/11 02:27:06;;;;;;;44.47;26.20;;;-7.30;1.00;;;;;;5000161;28;20435;-59
2024/01/11 02:29:34;;;;;;;43.47;26.93;;;-7.30;52.00;;;;;;5000327;28;20902;-59
2024/01/11 02:32:04;;;;;;;39.97;28.00;;;-7.40;43.20;;;;;;4999621;28;20463;-60
2024/01/11 02:34:31;;;;;;;40.23;27.33;;;-7.40;99.90;;;;;;5003101;28;20930;-59
2024/01/11 02:36:59;;;;;;;37.37;25.60;;;-7.40;21.10;;;;;;5003786;28;20467;-60
2024/01/11 02:39:27;;;;;;;42.37;24.63;;;-7.50;1.00;;;;;;5003776;28;20464;-59
2024/01/11 02:41:58;;;;;;;42.97;27.67;;;-7.40;1.00;;;;;;5004374;28;20541;-59
2024/01/11 02:44:25;;;;;;;43.80;27.07;;;-7.50;1.00;;;;;;5004177;28;20471;-60
2024/01/11 02:46:53;;;;;;;47.07;28.80;;;-7.50;1.00;;;;;;5004128;28;20803;-59
2024/01/11 02:49:20;;;;;;;41.73;27.63;;;-7.50;1.00;;;;;;5004116;28;20952;-59
2024/01/11 02:51:48;;;;;;;44.07;28.57;;;-7.50;1.00;;;;;;5003819;28;20500;-59
2024/01/11 02:54:15;;;;;;;43.20;26.80;;;-7.50;1.00;;;;;;5003328;28;20552;-60
2024/01/11 02:56:43;;;;;;;47.57;28.83;;;-7.50;1.00;;;;;;5003784;28;20470;-60
2024/01/11 02:59:12;;;;;;;46.03;29.27;;;-7.60;1.00;;;;;;5003942;28;20497;-60
2024/01/11 03:01:39;;;;;;;44.37;29.73;;;-7.60;1.00;;;;;;5004268;28;20942;-59
2024/01/11 03:04:07;;;;;;;43.30;30.57;;;-7.60;1.00;;;;;;5003093;28;20486;-59
2024/01/11 03:06:34;;;;;;;49.70;31.77;;;-7.70;54.20;;;;;;5003054;28;20465;-59
2024/01/11 03:09:01;;;;;;;48.17;32.10;;;-7.70;27.30;;;;;;5003438;28;20461;-59
2024/01/11 03:11:29;;;;;;;41.57;28.83;;;-7.70;42.10;;;;;;5004117;28;20465;-59
2024/01/11 03:13:56;;;;;;;49.47;30.80;;;-7.70;99.90;;;;;;5003927;28;20461;-59
2024/01/11 03:16:25;;;;;;;45.87;29.10;;;-7.80;93.30;;;;;;5003610;28;20484;-59
2024/01/11 03:18:52;;;;;;;41.77;29.10;;;-7.80;12.60;;;;;;5003789;28;20496;-59
2024/01/11 03:21:20;;;;;;;41.57;29.13;;;-7.80;99.90;;;;;;5001468;28;20811;-63
2024/01/11 03:23:47;;;;;;;51.03;31.57;;;-7.80;1.00;;;;;;5011585;28;20545;-60
2024/01/11 03:26:15;;;;;;;45.40;31.43;;;-7.80;1.00;;;;;;5004142;28;20481;-59
2024/01/11 03:28:42;;;;;;;45.13;31.23;;;-7.80;1.00;;;;;;5019565;28;20431;-59
2024/01/11 03:31:10;;;;;;;48.10;29.37;;;-7.80;1.00;;;;;;5023715;28;20431;-59
2024/01/11 03:33:39;;;;;;;43.07;28.10;;;-7.80;1.00;;;;;;5018778;28;20511;-60
2024/01/11 03:36:10;;;;;;;44.60;28.50;;;-7.90;1.00;;;;;;5023675;28;20959;-59
2024/01/11 03:38:37;;;;;;;44.53;28.37;;;-7.90;47.00;;;;;;5020334;28;20492;-63
2024/01/11 03:41:10;;;;;;;42.93;29.13;;;-7.90;99.90;;;;;;5020111;28;20504;-63
2024/01/11 03:43:37;;;;;;;39.00;26.60;;;-7.90;99.90;;;;;;5020938;28;20521;-63
2024/01/11 03:46:05;;;;;;;42.47;28.87;;;-7.80;99.90;;;;;;5020436;28;20760;-63
2024/01/11 03:48:32;;;;;;;44.20;29.03;;;-7.90;99.90;;;;;;5020216;28;20764;-63
2024/01/11 03:51:01;;;;;;;43.13;26.50;;;-8.00;99.90;;;;;;5020244;28;20839;-63
2024/01/11 03:53:29;;;;;;;42.00;26.67;;;-8.00;99.90;;;;;;5019914;28;20906;-63
2024/01/11 03:55:56;;;;;;;41.37;27.97;;;-7.90;99.90;;;;;;5020257;28;20781;-63
2024/01/11 03:58:24;;;;;;;40.33;27.50;;;-8.00;99.90;;;;;;5020085;28;20527;-63
2024/01/11 04:00:51;;;;;;;42.07;26.40;;;-8.00;99.90;;;;;;5020492;28;20830;-63
2024/01/11 04:03:20;;;;;;;39.70;26.30;;;-7.90;99.90;;;;;;5020351;28;20551;-63
2024/01/11 04:05:48;;;;;;;38.53;26.50;;;-7.90;99.90;;;;;;5020579;28;20464;-63
2024/01/11 04:08:17;;;;;;;40.43;27.43;;;-7.90;99.90;;;;;;5019848;28;20492;-63
2024/01/11 04:10:44;;;;;;;43.23;26.70;;;-7.90;99.90;;;;;;5020034;28;20518;-63
2024/01/11 04:13:11;;;;;;;39.13;26.10;;;-8.00;99.90;;;;;;5020010;28;20489;-63
2024/01/11 04:15:38;;;;;;;38.70;26.13;;;-7.90;99.90;;;;;;5019876;28;20464;-63
2024/01/11 04:18:06;;;;;;;41.20;26.90;;;-8.00;99.90;;;;;;5019609;28;20494;-63
2024/01/11 04:20:33;;;;;;;36.23;25.87;;;-8.00;99.90;;;;;;5019900;28;20465;-63
2024/01/11 04:23:00;;;;;;;37.60;24.97;;;-8.00;99.90;;;;;;5019784;28;20468;-63
2024/01/11 04:25:44;;;;;;;36.67;25.20;;;-8.00;99.90;;;;;;5019960;28;20467;-63
2024/01/11 04:28:11;;;;;;;38.10;25.53;;;-8.00;99.90;;;;;;5019392;28;20522;-63
2024/01/11 04:30:38;;;;;;;42.83;27.33;;;-8.00;99.90;;;;;;5019720;28;20547;-63
2024/01/11 04:33:06;;;;;;;38.33;26.97;;;-8.00;99.90;;;;;;5019734;28;20898;-63
2024/01/11 04:35:33;;;;;;;41.63;26.37;;;-8.10;99.90;;;;;;5019797;28;20442;-63
2024/01/11 04:38:00;;;;;;;42.53;28.00;;;-8.10;99.90;;;;;;5019587;28;20496;-63
2024/01/11 04:40:27;;;;;;;43.13;29.60;;;-8.10;99.90;;;;;;5019475;28;20840;-63
2024/01/11 04:42:56;;;;;;;41.00;28.90;;;-8.00;99.90;;;;;;5019843;28;20460;-63
2024/01/11 04:45:23;;;;;;;50.20;32.70;;;-7.90;99.90;;;;;;5019309;28;20466;-63
2024/01/11 04:47:52;;;;;;;45.73;27.77;;;-7.70;1.00;;;;;;5019628;28;20466;-63
2024/01/11 04:50:19;;;;;;;47.37;30.37;;;-7.50;99.90;;;;;;5019389;28;20468;-63
2024/01/11 04:52:46;;;;;;;41.27;27.47;;;-7.40;1.00;;;;;;5019512;28;20495;-63
2024/01/11 04:55:14;;;;;;;46.67;31.07;;;-7.40;1.00;;;;;;5019743;28;20587;-62
2024/01/11 04:57:41;;;;;;;43.10;29.13;;;-7.30;1.00;;;;;;5019419;28;20460;-63
2024/01/11 05:00:11;;;;;;;42.30;29.40;;;-7.30;74.40;;;;;;5019026;28;20550;-60
2024/01/11 05:02:38;;;;;;;45.87;31.23;;;-7.30;1.00;;;;;;5020892;28;20495;-59
2024/01/11 05:05:06;;;;;;;39.17;25.07;;;-7.40;1.00;;;;;;5021473;28;20539;-59
2024/01/11 05:07:34;;;;;;;39.10;27.77;;;-7.50;1.00;;;;;;5013227;28;20862;-60
2024/01/11 05:10:01;;;;;;;44.27;28.93;;;-7.50;99.90;;;;;;5002086;28;20460;-59
2024/01/11 05:12:29;;;;;;;45.00;28.60;;;-7.50;99.90;;;;;;5001751;28;20489;-60
2024/01/11 05:14:56;;;;;;;45.93;29.20;;;-7.60;99.90;;;;;;5001373;28;20958;-60
2024/01/11 05:17:25;;;;;;;53.13;31.93;;;-7.60;99.90;;;;;;5001548;28;20440;-59
2024/01/11 05:19:53;;;;;;;45.47;30.43;;;-7.60;1.00;;;;;;5001559;28;20527;-59
2024/01/11 05:22:21;;;;;;;50.90;32.63;;;-7.50;99.90;;;;;;5001496;28;20765;-60
2024/01/11 05:24:48;;;;;;;42.17;31.20;;;-7.40;99.90;;;;;;5001081;28;20447;-59
2024/01/11 05:27:16;;;;;;;38.10;27.20;;;-7.40;99.90;;;;;;5001615;28;20963;-59
2024/01/11 05:29:43;;;;;;;51.27;35.20;;;-7.40;28.00;;;;;;5001788;28;20500;-59
2024/01/11 05:32:10;;;;;;;44.70;29.30;;;-7.60;1.00;;;;;;5001160;28;20959;-59
2024/01/11 05:34:39;;;;;;;45.50;29.90;;;-7.70;1.00;;;;;;5001252;28;20497;-60
2024/01/11 05:37:06;;;;;;;42.37;27.73;;;-7.60;1.00;;;;;;5001108;28;20532;-59
2024/01/11 05:39:34;;;;;;;41.87;27.10;;;-7.50;1.00;;;;;;5001088;28;20517;-59
2024/01/11 05:42:01;;;;;;;38.00;27.80;;;-7.60;99.90;;;;;;5001462;28;20500;-59
2024/01/11 05:44:28;;;;;;;43.43;29.50;;;-7.60;99.90;;;;;;5000617;28;20440;-59
2024/01/11 05:46:55;;;;;;;41.10;29.27;;;-7.60;1.00;;;;;;5001261;28;20958;-59
2024/01/11 05:49:23;;;;;;;45.53;27.87;;;-7.60;1.00;;;;;;5000181;28;20463;-63
2024/01/11 05:51:51;;;;;;;44.40;27.63;;;-7.50;1.00;;;;;;4998632;28;20957;-63
2024/01/11 05:54:19;;;;;;;40.80;28.90;;;-7.50;99.90;;;;;;4998309;28;20467;-63
2024/01/11 05:56:46;;;;;;;42.90;27.40;;;-7.50;99.90;;;;;;4998512;28;20885;-63
2024/01/11 05:59:13;;;;;;;50.13;31.17;;;-7.50;95.60;;;;;;4998249;28;20488;-63
2024/01/11 06:01:43;;;;;;;40.73;27.13;;;-7.40;99.90;;;;;;5002708;28;20982;-63
2024/01/11 06:04:10;;;;;;;43.67;29.70;;;-7.40;96.40;;;;;;5006269;28;20530;-63
2024/01/11 06:06:37;;;;;;;46.17;29.37;;;-7.30;92.00;;;;;;5006235;28;20492;-63
2024/01/11 06:09:06;;;;;;;43.07;30.17;;;-7.40;1.00;;;;;;5009900;28;20460;-63
2024/01/11 06:11:33;;;;;;;38.23;29.10;;;-7.30;1.00;;;;;;5010470;28;20539;-63
2024/01/11 06:14:02;;;;;;;43.90;28.37;;;-7.30;1.00;;;;;;5010755;28;20453;-63
2024/01/11 06:16:30;;;;;;;43.40;28.30;;;-7.30;99.90;;;;;;5011144;28;20865;-63
2024/01/11 06:18:58;;;;;;;41.60;27.17;;;-7.40;99.90;;;;;;5010317;28;20460;-63
2024/01/11 06:21:25;;;;;;;44.47;27.40;;;-7.30;99.90;;;;;;5010078;28;20447;-63
2024/01/11 06:23:52;;;;;;;45.27;27.20;;;-7.30;99.90;;;;;;5003460;28;20539;-63
2024/01/11 06:26:22;;;;;;;41.63;30.10;;;-7.30;99.90;;;;;;5000108;28;20826;-62
2024/01/11 06:28:50;;;;;;;43.17;27.03;;;-7.40;99.90;;;;;;5002059;28;20462;-63
2024/01/11 06:31:18;;;;;;;45.07;29.03;;;-7.40;55.10;;;;;;5001927;28;20519;-63
2024/01/11 06:33:45;;;;;;;42.23;28.60;;;-7.40;99.90;;;;;;5004254;28;20865;-63
2024/01/11 06:36:12;;;;;;;43.27;29.00;;;-7.40;99.90;;;;;;5009861;28;20511;-63
2024/01/11 06:38:40;;;;;;;42.50;27.90;;;-7.50;99.90;;;;;;5009645;28;20510;-60
2024/01/11 06:41:07;;;;;;;38.93;28.00;;;-7.40;99.90;;;;;;5010949;28;20461;-59
2024/01/11 06:43:36;;;;;;;45.43;28.73;;;-7.40;99.90;;;;;;5011112;28;20480;-58
2024/01/11 06:46:09;;;;;;;39.13;26.77;;;-7.50;99.90;;;;;;5004678;28;21068;-59
2024/01/11 06:48:36;;;;;;;44.57;30.43;;;-7.40;99.90;;;;;;5001367;28;20457;-57
2024/01/11 06:51:03;;;;;;;37.27;26.60;;;-7.50;99.90;;;;;;5002622;28;20488;-59
2024/01/11 06:53:31;;;;;;;42.67;28.20;;;-7.50;99.90;;;;;;5002939;28;20571;-59
2024/01/11 06:55:58;;;;;;;42.90;29.00;;;-7.50;99.90;;;;;;5003352;28;20528;-59
2024/01/11 06:58:25;;;;;;;47.03;28.07;;;-7.50;99.90;;;;;;5003963;28;20465;-59
2024/01/11 07:00:54;;;;;;;44.50;29.57;;;-7.50;99.90;;;;;;5002709;28;20527;-59
2024/01/11 07:03:21;;;;;;;44.63;30.13;;;-7.50;1.00;;;;;;5000519;28;20965;-60
2024/01/11 07:05:48;;;;;;;42.20;26.93;;;-7.50;99.90;;;;;;5001082;28;20470;-59
2024/01/11 07:08:16;;;;;;;43.10;29.20;;;-7.50;1.00;;;;;;5000312;28;20467;-59
2024/01/11 07:10:43;;;;;;;41.27;28.83;;;-7.50;99.90;;;;;;5000285;28;20489;-60
2024/01/11 07:13:11;;;;;;;45.03;29.07;;;-7.50;1.00;;;;;;5000520;28;20436;-59
2024/01/11 07:15:39;;;;;;;43.03;30.10;;;-7.50;99.90;;;;;;5001459;28;20464;-58
2024/01/11 07:18:08;;;;;;;49.23;29.70;;;-7.60;99.90;;;;;;5002450;28;20492;-57
2024/01/11 07:20:35;;;;;;;46.83;30.87;;;-7.60;99.90;;;;;;5003042;28;20587;-61
2024/01/11 07:23:02;;;;;;;51.70;32.80;;;-7.70;99.90;;;;;;5002706;28;20524;-58
2024/01/11 07:25:30;;;;;;;45.80;31.90;;;-7.70;99.90;;;;;;5003734;28;20910;-58
2024/01/11 07:27:57;;;;;;;46.57;31.03;;;-7.70;99.90;;;;;;5003080;28;20475;-58
2024/01/11 07:30:25;;;;;;;45.80;30.80;;;-7.70;99.90;;;;;;5003210;28;20467;-59
2024/01/11 07:32:52;;;;;;;48.83;33.80;;;-7.60;99.90;;;;;;5003276;28;20465;-58
2024/01/11 07:35:21;;;;;;;54.67;35.03;;;-7.70;99.90;;;;;;5003295;28;20497;-58
2024/01/11 07:37:49;;;;;;;45.60;30.50;;;-7.60;99.90;;;;;;5003279;28;20978;-56
2024/01/11 07:40:17;;;;;;;52.60;34.20;;;-7.50;99.90;;;;;;5002473;28;20792;-59
2024/01/11 07:42:45;;;;;;;47.67;33.00;;;-7.50;99.90;;;;;;5003066;28;20536;-58
2024/01/11 07:45:13;;;;;;;47.53;31.63;;;-7.50;99.90;;;;;;5003109;28;20783;-59
2024/01/11 07:47:41;;;;;;;47.77;31.13;;;-7.50;99.90;;;;;;5002148;28;20465;-60
2024/01/11 07:50:10;;;;;;;44.40;29.77;;;-7.50;99.90;;;;;;5001173;28;20525;-57
2024/01/11 07:52:41;;;;;;;43.30;31.00;;;-7.40;1.00;;;;;;5000394;28;20439;-59
2024/01/11 07:55:12;;;;;;;39.47;27.97;;;-7.30;1.00;;;;;;5008149;28;20477;-59
2024/01/11 07:57:40;;;;;;;49.43;31.77;;;-7.30;1.00;;;;;;5021214;28;20458;-58
2024/01/11 08:00:09;;;;;;;52.73;33.30;;;-7.30;1.00;;;;;;5020413;28;20489;-59
2024/01/11 08:02:37;;;;;;;46.57;34.40;;;-7.30;1.00;;;;;;5020315;28;20522;-59
2024/01/11 08:05:05;;;;;;;54.40;32.07;;;-7.30;99.90;;;;;;5020350;28;20464;-58
2024/01/11 08:07:33;;;;;;;48.10;32.33;;;-7.30;99.90;;;;;;5020379;28;20464;-59
2024/01/11 08:10:03;;;;;;;53.47;31.50;;;-7.30;99.90;;;;;;5020797;28;20884;-59
2024/01/11 08:12:31;;;;;;;48.63;32.20;;;-7.20;99.90;;;;;;5020682;28;20464;-59
2024/01/11 08:14:59;;;;;;;52.97;34.70;;;-7.10;99.90;;;;;;5021254;28;20470;-59
2024/01/11 08:17:26;;;;;;;47.90;31.33;;;-6.90;99.90;;;;;;5020288;28;20464;-59
2024/01/11 08:19:55;;;;;;;53.50;33.70;;;-6.80;1.00;;;;;;5019458;28;20543;-60
2024/01/11 08:22:22;;;;;;;48.07;31.30;;;-6.60;1.00;;;;;;5018860;28;20468;-59
2024/01/11 08:24:49;;;;;;;47.00;30.57;;;-6.30;1.00;;;;;;5019744;28;20991;-58
2024/01/11 08:27:18;;;;;;;46.93;31.37;;;-6.20;1.00;;;;;;5009771;28;20964;-58
2024/01/11 08:29:46;;;;;;;51.50;31.03;;;-5.90;1.00;;;;;;5010818;28;20970;-58
2024/01/11 08:32:14;;;;;;;46.90;31.00;;;-5.80;1.00;;;;;;4995956;28;20788;-59
2024/01/11 08:34:41;;;;;;;47.60;30.93;;;-5.60;1.00;;;;;;4997468;28;20457;-59
2024/01/11 08:37:09;;;;;;;44.83;30.03;;;-5.40;1.00;;;;;;4996851;28;20737;-59
2024/01/11 08:39:37;;;;;;;47.27;30.80;;;-5.30;1.00;;;;;;4997825;28;20995;-59
2024/01/11 08:42:05;;;;;;;46.90;29.13;;;-5.20;1.00;;;;;;4999367;28;20472;-60
2024/01/11 08:44:33;;;;;;;44.87;28.27;;;-5.10;99.90;;;;;;4999218;28;20458;-59
2024/01/11 08:47:03;;;;;;;47.27;32.43;;;-4.90;99.90;;;;;;4997968;28;20469;-59
2024/01/11 08:49:30;;;;;;;46.80;31.30;;;-4.70;96.50;;;;;;4998431;28;20496;-58
2024/01/11 08:51:58;;;;;;;44.17;31.10;;;-4.50;24.80;;;;;;4998395;28;20468;-59
2024/01/11 08:54:25;;;;;;;42.60;29.47;;;-4.30;1.00;;;;;;4998066;28;20435;-60
2024/01/11 08:56:53;;;;;;;42.13;29.83;;;-4.10;1.00;;;;;;5014175;28;20951;-60
2024/01/11 08:59:24;;;;;;;47.40;30.10;;;-4.00;1.00;;;;;;5017458;28;20492;-60
2024/01/11 09:01:53;;;;;;;49.57;29.40;;;-3.70;1.00;;;;;;5019551;28;20825;-59
2024/01/11 09:04:21;;;;;;;47.33;29.60;;;-3.60;99.90;;;;;;5018579;28;20489;-59
2024/01/11 09:06:48;;;;;;;42.40;29.23;;;-3.40;99.90;;;;;;5019016;28;20488;-59
2024/01/11 09:09:16;;;;;;;48.60;29.37;;;-3.30;99.90;;;;;;5013675;28;20506;-59
2024/01/11 09:11:44;;;;;;;41.90;28.97;;;-3.20;99.90;;;;;;5007686;28;20542;-59
2024/01/11 09:14:12;;;;;;;47.50;30.60;;;-3.10;99.90;;;;;;5007404;28;20489;-59
2024/01/11 09:16:40;;;;;;;44.13;29.23;;;-2.90;99.90;;;;;;5008966;28;20457;-59
2024/01/11 09:19:10;;;;;;;44.07;28.67;;;-2.80;99.90;;;;;;5009448;28;20461;-59
2024/01/11 09:21:38;;;;;;;50.87;32.37;;;-2.70;41.20;;;;;;5007092;28;20453;-60
2024/01/11 09:24:05;;;;;;;50.70;32.27;;;-2.60;32.40;;;;;;5004230;28;20468;-59
2024/01/11 09:26:36;;;;;;;47.37;32.00;;;-2.50;41.90;;;;;;5005899;28;20465;-59
2024/01/11 09:29:03;;;;;;;57.23;33.90;;;-2.30;44.20;;;;;;5006303;28;20849;-59
2024/01/11 09:31:31;;;;;;;59.00;33.63;;;-2.10;27.30;;;;;;5007911;28;20454;-59
2024/01/11 09:33:58;;;;;;;49.40;33.47;;;-2.10;1.00;;;;;;5003887;28;20545;-60
2024/01/11 09:36:27;;;;;;;50.43;32.27;;;-1.90;1.00;;;;;;5005788;28;20453;-60
2024/01/11 09:38:55;;;;;;;48.67;31.93;;;-1.80;1.00;;;;;;5007509;28;20544;-60
2024/01/11 09:41:23;;;;;;;54.37;34.67;;;-1.60;1.00;;;;;;5006664;28;20483;-60
2024/01/11 09:43:55;;;;;;;50.87;30.70;;;-1.50;1.00;;;;;;5007999;28;20463;-60
2024/01/11 09:46:26;;;;;;;45.70;31.37;;;-1.30;1.00;;;;;;5014368;28;20444;-61
2024/01/11 09:48:56;;;;;;;48.10;31.87;;;-1.20;1.00;;;;;;5009333;28;20434;-62
2024/01/11 09:51:24;;;;;;;45.67;30.90;;;-1.00;1.00;;;;;;5006799;28;20422;-61
2024/01/11 09:53:56;;;;;;;47.07;31.00;;;-0.70;1.00;;;;;;5003928;28;20468;-62
2024/01/11 09:56:24;;;;;;;46.90;29.73;;;-0.50;1.00;;;;;;5005481;28;20904;-62
2024/01/11 09:58:52;;;;;;;36.87;25.73;;;-0.30;1.00;;;;;;5007278;28;20456;-62
2024/01/11 10:01:21;;;;;;;38.10;24.53;;;-0.20;1.00;;;;;;5012084;28;20487;-62
2024/01/11 10:03:49;;;;;;;37.80;24.70;;;-0.20;1.00;;;;;;5016739;28;20495;-62
2024/01/11 10:06:18;;;;;;;39.83;24.97;;;-0.10;1.00;;;;;;5016208;28;20795;-62
2024/01/11 10:08:46;;;;;;;34.93;24.80;;;0.10;1.00;;;;;;5015888;28;20522;-62
2024/01/11 10:11:15;;;;;;;33.07;23.60;;;0.40;1.00;;;;;;5017097;28;20514;-62
2024/01/11 10:13:43;;;;;;;31.50;22.47;;;0.60;1.00;;;;;;5008633;28;20483;-61
2024/01/11 10:16:13;;;;;;;32.00;22.70;;;0.50;1.00;;;;;;5012367;28;20457;-61
2024/01/11 10:18:40;;;;;;;29.87;19.43;;;0.80;1.00;;;;;;5017129;28;20874;-60
2024/01/11 10:21:09;;;;;;;35.50;22.20;;;0.80;1.00;;;;;;5017249;28;20503;-60
2024/01/11 10:23:38;;;;;;;30.10;20.70;;;1.10;1.00;;;;;;5014493;28;20842;-60
2024/01/11 10:26:07;;;;;;;28.43;20.60;;;1.10;1.00;;;;;;5007864;28;21045;-60
2024/01/11 10:28:37;;;;;;;27.03;19.20;;;0.80;1.00;;;;;;5007499;28;20515;-60
2024/01/11 10:31:06;;;;;;;29.73;20.53;;;1.00;1.00;;;;;;5007422;28;20453;-60
2024/01/11 10:33:35;;;;;;;31.63;19.97;;;1.20;1.00;;;;;;5006069;28;20463;-59
2024/01/11 10:36:03;;;;;;;28.63;19.10;;;1.30;1.00;;;;;;5014512;28;20457;-60
2024/01/11 10:38:32;;;;;;;30.37;18.30;;;1.40;1.00;;;;;;5014938;28;20899;-59
2024/01/11 10:41:02;;;;;;;28.80;19.80;;;1.60;1.00;;;;;;5007935;28;20493;-60
2024/01/11 10:43:33;;;;;;;25.70;18.50;;;1.60;1.00;;;;;;4997870;28;20457;-60
2024/01/11 10:46:06;;;;;;;30.57;19.03;;;1.60;99.90;;;;;;4997106;28;20469;-60
2024/01/11 10:48:38;;;;;;;27.77;19.70;;;1.90;99.90;;;;;;4997359;28;20465;-60
2024/01/11 10:51:09;;;;;;;30.70;19.77;;;2.00;1.00;;;;;;4999096;28;20494;-60
2024/01/11 10:53:44;;;;;;;30.63;20.53;;;2.10;99.90;;;;;;5004800;28;20461;-61
2024/01/11 10:56:13;;;;;;;28.10;20.20;;;2.20;1.00;;;;;;5010308;28;20460;-61
2024/01/11 10:58:42;;;;;;;32.60;20.70;;;2.20;99.90;;;;;;5008972;28;20461;-61
2024/01/11 11:01:12;;;;;;;35.33;23.07;;;2.20;99.90;;;;;;5010229;28;20488;-61
2024/01/11 11:03:42;;;;;;;31.50;20.67;;;2.40;1.00;;;;;;5010802;28;20480;-61
2024/01/11 11:06:12;;;;;;;34.10;22.07;;;2.40;99.90;;;;;;5005727;28;20463;-60
2024/01/11 11:08:40;;;;;;;30.50;20.33;;;2.50;99.90;;;;;;5010792;28;20488;-59
2024/01/11 11:11:08;;;;;;;27.20;20.17;;;2.60;99.90;;;;;;5009404;28;20838;-60
2024/01/11 11:13:36;;;;;;;32.10;20.80;;;2.80;99.90;;;;;;5008284;28;20526;-60
2024/01/11 11:16:04;;;;;;;30.43;20.77;;;2.70;99.90;;;;;;5009430;28;20465;-60
2024/01/11 11:18:35;;;;;;;28.40;20.37;;;2.60;99.90;;;;;;5009189;28;20783;-60
2024/01/11 11:21:02;;;;;;;28.80;20.00;;;2.60;99.90;;;;;;5008764;28;20491;-61
2024/01/11 11:23:30;;;;;;;29.47;18.53;;;2.60;99.90;;;;;;5018662;28;20756;-61
2024/01/11 11:25:58;;;;;;;28.67;19.57;;;2.90;99.90;;;;;;5017770;28;20869;-62
2024/01/11 11:28:27;;;;;;;28.40;19.73;;;2.80;99.90;;;;;;5007869;28;20463;-61
2024/01/11 11:30:57;;;;;;;27.03;20.37;;;2.90;99.90;;;;;;5006218;28;20507;-61
2024/01/11 11:33:28;;;;;;;30.60;20.60;;;3.30;99.90;;;;;;5007176;28;20738;-61
2024/01/11 11:35:59;;;;;;;31.07;20.70;;;3.10;99.90;;;;;;5008776;28;20520;-61
2024/01/11 11:38:29;;;;;;;33.20;21.03;;;3.00;99.90;;;;;;5005643;28;20475;-61
2024/01/11 11:40:59;;;;;;;38.77;21.73;;;3.30;99.90;;;;;;5008938;28;20495;-61
2024/01/11 11:43:29;;;;;;;27.60;19.80;;;3.30;99.90;;;;;;5006981;28;20464;-61
2024/01/11 11:45:58;;;;;;;30.30;20.97;;;3.20;99.90;;;;;;5007104;28;20487;-62
2024/01/11 11:48:52;;;;;;;26.60;19.50;;;3.60;99.90;;;;;;5005345;28;20457;-62
2024/01/11 11:51:22;;;;;;;30.53;18.70;;;3.70;99.90;;;;;;5005099;28;20461;-62
2024/01/11 11:53:50;;;;;;;29.40;19.40;;;3.80;99.90;;;;;;5003856;28;20515;-62
2024/01/11 11:56:19;;;;;;;28.47;22.67;;;3.90;99.90;;;;;;5006509;28;20473;-62
2024/01/11 11:58:48;;;;;;;30.63;21.90;;;4.30;99.90;;;;;;5007774;28;20768;-62
2024/01/11 12:01:17;;;;;;;32.40;22.60;;;4.60;99.90;;;;;;5004997;28;20491;-62
2024/01/11 12:03:49;;;;;;;29.93;23.60;;;4.40;99.90;;;;;;5006916;28;20485;-62
2024/01/11 12:06:18;;;;;;;34.23;20.03;;;4.40;99.90;;;;;;4999163;28;20464;-62
2024/01/11 12:08:49;;;;;;;24.23;20.03;;;4.70;99.90;;;;;;5004538;28;20506;-63
2024/01/11 12:11:19;;;;;;;24.07;18.07;;;4.90;99.90;;;;;;5005650;28;20455;-63
2024/01/11 12:13:47;;;;;;;28.50;20.00;;;4.60;1.00;;;;;;5005390;28;20512;-62
2024/01/11 12:16:14;;;;;;;23.27;17.47;;;4.70;99.90;;;;;;5004179;28;20457;-62
2024/01/11 12:18:42;;;;;;;23.27;17.53;;;5.00;99.90;;;;;;5008575;28;20456;-63
2024/01/11 12:21:10;;;;;;;23.93;17.87;;;5.20;99.90;;;;;;5007184;28;20563;-63
2024/01/11 12:23:39;;;;;;;24.47;17.33;;;5.10;99.90;;;;;;5006930;28;20453;-63
2024/01/11 12:26:12;;;;;;;22.27;16.40;;;5.10;99.90;;;;;;5007751;28;20483;-66
2024/01/11 12:28:41;;;;;;;24.20;18.37;;;4.70;99.90;;;;;;5009252;28;20464;-65
2024/01/11 12:31:09;;;;;;;24.77;16.73;;;4.60;99.90;;;;;;5009745;28;20747;-65
2024/01/11 12:33:38;;;;;;;21.73;15.73;;;4.50;99.90;;;;;;5008015;28;20489;-65
2024/01/11 12:36:08;;;;;;;28.50;17.50;;;4.50;99.90;;;;;;5008706;28;20585;-66
2024/01/11 12:38:36;;;;;;;21.00;14.87;;;4.30;99.90;;;;;;5009974;28;20555;-66